createdAt,value
2018-08-13T00:01:58.655Z,2.40
2018-08-13T00:04:26.091Z,2.17
2018-08-13T00:06:54.183Z,2.20
2018-08-13T00:09:27.218Z,2.47
2018-08-13T00:11:54.668Z,1.80
2018-08-13T00:14:22.551Z,2.27
2018-08-13T00:16:50.099Z,2.70
2018-08-13T00:19:17.741Z,1.83
2018-08-13T00:21:45.164Z,1.93
2018-08-13T00:24:12.563Z,2.20
2018-08-13T00:26:39.955Z,2.30
2018-08-13T00:29:07.373Z,2.70
2018-08-13T00:31:34.826Z,2.23
2018-08-13T00:34:05.483Z,1.80
2018-08-13T00:36:32.867Z,2.43
2018-08-13T00:39:00.284Z,1.80
2018-08-13T00:41:27.740Z,2.40
2018-08-13T00:43:55.218Z,2.00
2018-08-13T00:46:22.814Z,1.93
2018-08-13T00:48:50.274Z,2.13
2018-08-13T00:51:17.835Z,1.90
2018-08-13T00:53:45.219Z,2.43
2018-08-13T00:56:12.648Z,1.80
2018-08-13T00:58:40.035Z,2.37
2018-08-13T01:01:07.432Z,2.80
2018-08-13T01:03:34.844Z,1.80
2018-08-13T01:06:02.275Z,2.30
2018-08-13T01:08:29.818Z,1.90
2018-08-13T01:10:57.255Z,2.20
2018-08-13T01:13:24.662Z,3.50
2018-08-13T01:15:52.160Z,2.00
2018-08-13T01:18:19.555Z,1.93
2018-08-13T01:20:46.939Z,1.73
2018-08-13T01:23:14.334Z,1.90
2018-08-13T01:25:41.743Z,2.00
2018-08-13T01:28:09.059Z,1.90
2018-08-13T01:30:36.386Z,2.27
2018-08-13T01:33:03.783Z,1.80
2018-08-13T01:35:31.231Z,2.33
2018-08-13T01:37:58.587Z,2.17
2018-08-13T01:40:25.991Z,2.33
2018-08-13T01:42:53.335Z,2.10
2018-08-13T01:45:20.718Z,1.77
2018-08-13T01:47:48.080Z,2.00
2018-08-13T01:50:15.527Z,2.10
2018-08-13T01:52:42.918Z,2.37
2018-08-13T01:55:10.506Z,2.50
2018-08-13T01:57:37.862Z,2.40
2018-08-13T02:00:09.115Z,2.27
2018-08-13T02:02:36.444Z,1.70
2018-08-13T02:05:04.339Z,2.90
2018-08-13T02:07:31.688Z,2.27
2018-08-13T02:09:59.030Z,3.03
2018-08-13T02:12:26.378Z,2.37
2018-08-13T02:14:53.728Z,1.90
2018-08-13T02:17:21.063Z,2.50
2018-08-13T02:19:48.482Z,2.37
2018-08-13T02:22:19.445Z,2.00
2018-08-13T02:24:47.385Z,3.37
2018-08-13T02:27:14.781Z,2.43
2018-08-13T02:29:42.648Z,2.23
2018-08-13T02:32:10.095Z,2.67
2018-08-13T02:34:37.493Z,2.43
2018-08-13T02:37:05.014Z,1.93
2018-08-13T02:39:32.394Z,1.90
2018-08-13T02:41:59.915Z,3.23
2018-08-13T02:44:27.375Z,1.80
2018-08-13T02:46:54.775Z,1.50
2018-08-13T02:49:22.302Z,3.70
2018-08-13T02:51:49.686Z,2.20
2018-08-13T02:54:17.206Z,2.00
2018-08-13T02:56:44.642Z,1.63
2018-08-13T02:59:12.106Z,2.20
2018-08-13T03:01:40.142Z,2.90
2018-08-13T03:04:07.543Z,2.37
2018-08-13T03:06:34.936Z,2.17
2018-08-13T03:09:02.699Z,1.87
2018-08-13T03:11:30.159Z,1.83
2018-08-13T03:13:57.627Z,2.70
2018-08-13T03:16:25.140Z,1.80
2018-08-13T03:18:52.622Z,2.10
2018-08-13T03:21:20.019Z,2.00
2018-08-13T03:23:47.703Z,2.90
2018-08-13T03:26:15.035Z,1.90
2018-08-13T03:28:42.388Z,2.60
2018-08-13T03:31:09.847Z,2.40
2018-08-13T03:33:37.397Z,2.17
2018-08-13T03:36:04.803Z,4.60
2018-08-13T03:38:32.131Z,2.83
2018-08-13T03:40:59.459Z,1.57
2018-08-13T03:43:26.827Z,2.07
2018-08-13T03:45:54.207Z,2.33
2018-08-13T03:48:21.604Z,2.77
2018-08-13T03:50:49.127Z,3.43
2018-08-13T03:53:16.459Z,2.10
2018-08-13T03:55:44.397Z,2.30
2018-08-13T03:58:11.739Z,1.97
2018-08-13T04:00:39.137Z,2.30
2018-08-13T04:03:06.818Z,2.00
2018-08-13T04:05:34.242Z,1.90
2018-08-13T04:08:01.617Z,2.27
2018-08-13T04:10:29.051Z,3.47
2018-08-13T04:12:56.523Z,2.30
2018-08-13T04:15:23.857Z,2.57
2018-08-13T04:17:51.223Z,1.73
2018-08-13T04:20:18.626Z,2.00
2018-08-13T04:22:46.039Z,2.20
2018-08-13T04:25:13.973Z,4.00
2018-08-13T04:27:41.377Z,3.50
2018-08-13T04:30:14.024Z,2.70
2018-08-13T04:32:42.238Z,2.63
2018-08-13T04:35:09.591Z,3.13
2018-08-13T04:37:37.410Z,3.00
2018-08-13T04:40:06.855Z,2.50
2018-08-13T04:42:34.272Z,2.90
2018-08-13T04:47:58.515Z,3.03
2018-08-13T04:50:25.914Z,3.03
2018-08-13T04:52:53.368Z,2.10
2018-08-13T04:55:21.072Z,1.60
2018-08-13T04:57:48.603Z,2.30
2018-08-13T05:00:16.014Z,1.73
2018-08-13T05:02:43.432Z,1.60
2018-08-13T05:05:11.398Z,2.30
2018-08-13T05:07:39.133Z,1.93
2018-08-13T05:10:07.622Z,2.50
2018-08-13T05:12:35.012Z,2.00
2018-08-13T05:15:02.547Z,2.23
2018-08-13T05:17:30.318Z,2.23
2018-08-13T05:19:57.691Z,2.50
2018-08-13T05:22:25.214Z,2.70
2018-08-13T05:24:52.614Z,11.03
2018-08-13T05:27:19.990Z,3.03
2018-08-13T05:29:47.433Z,2.33
2018-08-13T05:32:14.851Z,2.80
2018-08-13T05:34:42.256Z,5.53
2018-08-13T05:37:09.693Z,3.23
2018-08-13T05:39:37.100Z,2.30
2018-08-13T05:42:04.519Z,2.20
2018-08-13T05:44:31.950Z,2.40
2018-08-13T05:46:59.326Z,3.67
2018-08-13T05:49:26.710Z,3.27
2018-08-13T05:51:54.120Z,2.77
2018-08-13T05:54:21.547Z,2.53
2018-08-13T05:56:49.130Z,1.97
2018-08-13T05:59:16.534Z,3.77
2018-08-13T06:01:43.902Z,2.70
2018-08-13T06:04:12.816Z,3.10
2018-08-13T06:06:40.223Z,2.20
2018-08-13T06:09:09.047Z,4.00
2018-08-13T06:11:36.536Z,3.00
2018-08-13T06:14:03.971Z,3.07
2018-08-13T06:16:31.470Z,2.53
2018-08-13T06:18:58.838Z,2.70
2018-08-13T06:21:26.262Z,3.03
2018-08-13T06:23:53.766Z,3.10
2018-08-13T06:26:21.383Z,2.73
2018-08-13T06:28:48.785Z,2.67
2018-08-13T06:31:16.245Z,5.03
2018-08-13T06:33:43.651Z,3.17
2018-08-13T06:36:11.060Z,3.30
2018-08-13T06:38:38.535Z,3.47
2018-08-13T06:41:05.951Z,2.13
2018-08-13T06:43:33.360Z,2.33
2018-08-13T06:46:00.763Z,2.83
2018-08-13T06:48:28.134Z,3.50
2018-08-13T06:50:55.578Z,3.37
2018-08-13T06:53:22.970Z,3.53
2018-08-13T06:55:50.391Z,5.50
2018-08-13T06:58:17.928Z,2.90
2018-08-13T07:00:45.392Z,3.80
2018-08-13T07:03:12.832Z,4.47
2018-08-13T07:05:40.229Z,3.13
2018-08-13T07:08:08.161Z,5.97
2018-08-13T07:10:35.618Z,5.30
2018-08-13T07:13:03.127Z,8.07
2018-08-13T07:15:30.537Z,4.10
2018-08-13T07:17:57.971Z,4.30
2018-08-13T07:20:25.427Z,3.70
2018-08-13T07:22:52.879Z,3.97
2018-08-13T07:25:20.268Z,4.17
2018-08-13T07:27:47.916Z,3.17
2018-08-13T07:30:15.383Z,3.60
2018-08-13T07:32:43.673Z,3.27
2018-08-13T07:35:11.170Z,3.20
2018-08-13T07:37:38.637Z,2.60
2018-08-13T07:40:08.912Z,3.53
2018-08-13T07:42:36.322Z,2.60
2018-08-13T07:45:04.801Z,3.30
2018-08-13T07:47:32.274Z,3.63
2018-08-13T07:49:59.781Z,2.50
2018-08-13T07:52:27.220Z,3.10
2018-08-13T07:54:54.702Z,3.00
2018-08-13T07:57:22.127Z,3.37
2018-08-13T07:59:49.583Z,2.77
2018-08-13T08:02:19.760Z,3.23
2018-08-13T08:04:47.212Z,3.57
2018-08-13T08:07:14.716Z,3.43
2018-08-13T08:09:42.579Z,3.80
2018-08-13T08:12:11.095Z,3.37
2018-08-13T08:14:38.531Z,4.13
2018-08-13T08:17:05.859Z,2.77
2018-08-13T08:19:33.707Z,3.60
2018-08-13T08:22:03.719Z,3.20
2018-08-13T08:24:31.171Z,3.13
2018-08-13T08:27:04.227Z,3.93
2018-08-13T08:29:31.639Z,3.60
2018-08-13T08:31:59.058Z,3.10
2018-08-13T08:34:30.934Z,3.13
2018-08-13T08:36:58.344Z,2.90
2018-08-13T08:39:25.771Z,3.13
2018-08-13T08:41:53.195Z,3.33
2018-08-13T08:44:20.606Z,2.67
2018-08-13T08:46:49.301Z,2.10
2018-08-13T08:49:18.935Z,2.17
2018-08-13T08:51:46.369Z,2.10
2018-08-13T08:54:13.817Z,2.17
2018-08-13T08:56:41.235Z,1.77
2018-08-13T08:59:09.530Z,1.87
2018-08-13T09:01:39.591Z,1.90
2018-08-13T09:04:08.184Z,2.17
2018-08-13T09:06:35.729Z,2.87
2018-08-13T09:09:06.604Z,2.50
2018-08-13T09:11:34.815Z,2.50
2018-08-13T09:14:07.572Z,2.70
2018-08-13T09:16:34.892Z,3.20
2018-08-13T09:19:14.034Z,3.80
2018-08-13T09:21:46.412Z,3.10
2018-08-13T09:24:25.322Z,3.37
2018-08-13T09:27:04.987Z,2.67
2018-08-13T09:29:44.040Z,2.97
2018-08-13T09:32:26.207Z,2.73
2018-08-13T09:34:56.049Z,2.60
2018-08-13T09:37:23.611Z,3.20
2018-08-13T09:39:51.103Z,3.30
2018-08-13T09:42:18.653Z,3.40
2018-08-13T09:44:50.776Z,3.10
2018-08-13T09:47:19.742Z,2.63
2018-08-13T09:49:48.133Z,3.60
2018-08-13T09:52:15.553Z,3.40
2018-08-13T09:54:42.947Z,3.10
2018-08-13T09:57:10.364Z,2.40
2018-08-13T09:59:39.559Z,2.50
2018-08-13T10:02:07.039Z,2.10
2018-08-13T10:04:34.543Z,3.80
2018-08-13T10:07:02.029Z,2.13
2018-08-13T10:09:29.399Z,2.83
2018-08-13T10:11:56.823Z,3.40
2018-08-13T10:14:25.883Z,1.63
2018-08-13T10:16:53.439Z,2.33
2018-08-13T10:19:20.743Z,2.07
2018-08-13T10:21:48.150Z,2.20
2018-08-13T10:24:15.582Z,2.60
2018-08-13T10:26:43.008Z,1.87
2018-08-13T10:29:10.415Z,1.80
2018-08-13T10:31:37.848Z,3.00
2018-08-13T10:34:05.263Z,1.50
2018-08-13T10:36:32.724Z,2.00
2018-08-13T10:39:00.136Z,2.40
2018-08-13T10:41:27.626Z,2.10
2018-08-13T10:43:55.037Z,2.90
2018-08-13T10:46:22.467Z,1.87
2018-08-13T10:48:49.917Z,1.80
2018-08-13T10:51:17.407Z,1.67
2018-08-13T10:53:44.853Z,1.67
2018-08-13T10:56:17.576Z,1.80
2018-08-13T10:58:44.987Z,2.87
2018-08-13T11:01:12.799Z,1.83
2018-08-13T11:03:40.141Z,1.60
2018-08-13T11:06:07.596Z,2.10
2018-08-13T11:08:39.393Z,2.00
2018-08-13T11:11:06.783Z,2.20
2018-08-13T11:13:34.279Z,2.43
2018-08-13T11:16:01.611Z,1.63
2018-08-13T11:18:29.064Z,1.70
2018-08-13T11:20:56.467Z,2.00
2018-08-13T11:23:26.384Z,1.40
2018-08-13T11:25:53.787Z,1.60
2018-08-13T11:28:21.208Z,2.33
2018-08-13T11:30:48.591Z,1.60
2018-08-13T11:33:16.082Z,2.00
2018-08-13T11:35:43.535Z,2.20
2018-08-13T11:38:15.631Z,1.70
2018-08-13T11:40:43.041Z,1.63
2018-08-13T11:43:10.455Z,1.83
2018-08-13T11:45:37.833Z,1.80
2018-08-13T11:48:05.303Z,1.93
2018-08-13T11:50:32.711Z,1.70
2018-08-13T11:53:04.203Z,1.83
2018-08-13T11:55:31.652Z,1.90
2018-08-13T11:57:59.058Z,1.53
2018-08-13T12:00:26.495Z,2.63
2018-08-13T12:02:53.907Z,1.70
2018-08-13T12:05:21.315Z,2.00
2018-08-13T12:07:48.739Z,1.63
2018-08-13T12:10:16.269Z,1.97
2018-08-13T12:12:44.064Z,1.87
2018-08-13T12:15:12.179Z,2.10
2018-08-13T12:17:40.044Z,2.33
2018-08-13T12:20:09.945Z,5.90
2018-08-13T12:22:37.437Z,3.77
2018-08-13T12:25:05.539Z,2.13
2018-08-13T12:27:32.948Z,2.67
2018-08-13T12:30:00.316Z,2.10
2018-08-13T12:32:27.767Z,2.23
2018-08-13T12:34:55.151Z,1.90
2018-08-13T12:37:22.664Z,2.43
2018-08-13T12:39:50.160Z,2.40
2018-08-13T12:42:17.647Z,3.10
2018-08-13T12:44:45.002Z,2.63
2018-08-13T12:47:12.417Z,2.10
2018-08-13T12:49:39.885Z,2.00
2018-08-13T12:52:07.301Z,2.00
2018-08-13T12:54:34.689Z,2.20
2018-08-13T12:57:02.120Z,2.00
2018-08-13T12:59:29.533Z,1.93
2018-08-13T13:01:56.981Z,1.93
2018-08-13T13:04:24.380Z,1.93
2018-08-13T13:06:51.775Z,1.90
2018-08-13T13:09:19.199Z,2.30
2018-08-13T13:11:48.278Z,1.73
2018-08-13T13:14:15.759Z,2.00
2018-08-13T13:16:43.195Z,2.00
2018-08-13T13:19:10.571Z,2.40
2018-08-13T13:21:37.972Z,2.33
2018-08-13T13:24:07.091Z,2.90
2018-08-13T13:26:37.551Z,2.93
2018-08-13T13:29:04.988Z,2.97
2018-08-13T13:31:32.391Z,3.20
2018-08-13T13:34:02.174Z,3.90
2018-08-13T13:36:29.637Z,4.07
2018-08-13T13:38:59.491Z,5.57
2018-08-13T13:41:29.287Z,6.47
2018-08-13T13:43:56.514Z,6.30
2018-08-13T13:46:23.805Z,8.97
2018-08-13T13:48:51.128Z,9.17
2018-08-13T13:51:18.413Z,10.17
2018-08-13T13:53:45.615Z,10.63
2018-08-13T13:56:14.372Z,9.43
2018-08-13T13:58:41.840Z,5.93
2018-08-13T14:01:09.248Z,4.47
2018-08-13T14:03:36.898Z,5.97
2018-08-13T14:06:04.306Z,4.03
2018-08-13T14:08:31.670Z,4.53
2018-08-13T14:11:01.159Z,7.07
2018-08-13T14:13:28.566Z,4.40
2018-08-13T14:15:56.044Z,4.40
2018-08-13T14:18:23.511Z,3.97
2018-08-13T14:20:50.877Z,3.30
2018-08-13T14:23:19.938Z,3.40
2018-08-13T14:25:49.314Z,3.07
2018-08-13T14:28:16.787Z,4.00
2018-08-13T14:30:44.240Z,3.80
2018-08-13T14:33:11.965Z,4.03
2018-08-13T14:35:39.400Z,4.23
2018-08-13T14:38:08.728Z,3.97
2018-08-13T14:40:38.857Z,4.50
2018-08-13T14:43:06.396Z,5.07
2018-08-13T14:45:33.867Z,3.83
2018-08-13T14:48:01.344Z,4.30
2018-08-13T14:50:28.932Z,4.30
2018-08-13T14:53:00.645Z,5.40
2018-08-13T14:55:28.099Z,4.80
2018-08-13T14:57:55.592Z,6.53
2018-08-13T15:00:29.932Z,3.90
2018-08-13T15:02:57.363Z,3.10
2018-08-13T15:05:25.274Z,4.10
2018-08-13T15:07:53.783Z,3.20
2018-08-13T15:10:23.570Z,3.43
2018-08-13T15:12:51.127Z,3.87
2018-08-13T15:15:18.708Z,3.70
2018-08-13T15:17:46.462Z,3.10
2018-08-13T15:20:20.319Z,3.93
2018-08-13T15:22:47.524Z,5.43
2018-08-13T15:25:14.751Z,4.10
2018-08-13T15:27:42.192Z,4.70
2018-08-13T15:30:12.396Z,3.77
2018-08-13T15:35:19.027Z,6.30
2018-08-13T15:37:47.996Z,4.90
2018-08-13T15:40:15.395Z,4.67
2018-08-13T15:42:42.985Z,5.80
2018-08-13T15:45:11.663Z,6.07
2018-08-13T15:47:39.216Z,6.57
2018-08-13T15:50:06.775Z,6.37
2018-08-13T15:52:33.963Z,6.53
2018-08-13T15:55:02.809Z,7.10
2018-08-13T15:57:30.076Z,7.13
2018-08-13T15:59:57.985Z,6.60
2018-08-13T16:02:25.225Z,8.03
2018-08-13T16:04:52.495Z,9.30
2018-08-13T16:07:19.750Z,6.30
2018-08-13T16:09:47.292Z,7.10
2018-08-13T16:12:15.518Z,7.07
2018-08-13T16:14:46.321Z,6.90
2018-08-13T16:17:13.731Z,7.10
2018-08-13T16:19:40.952Z,6.70
2018-08-13T16:22:08.198Z,6.53
2018-08-13T16:24:35.452Z,7.23
2018-08-13T16:27:03.312Z,7.10
2018-08-13T16:29:30.530Z,7.47
2018-08-13T16:31:57.978Z,6.87
2018-08-13T16:34:25.251Z,6.23
2018-08-13T16:36:53.497Z,6.77
2018-08-13T16:39:20.818Z,7.67
2018-08-13T16:41:48.019Z,7.00
2018-08-13T16:44:15.211Z,7.43
2018-08-13T16:46:42.439Z,9.73
2018-08-13T16:49:13.662Z,7.57
2018-08-13T16:51:41.060Z,6.30
2018-08-13T16:54:08.287Z,5.97
2018-08-13T16:56:35.623Z,8.60
2018-08-13T16:59:03.195Z,5.97
2018-08-13T17:01:30.422Z,7.00
2018-08-13T17:03:59.068Z,6.07
2018-08-13T17:06:26.318Z,6.13
2018-08-13T17:08:57.309Z,5.57
2018-08-13T17:11:30.154Z,6.10
2018-08-13T17:13:57.664Z,6.20
2018-08-13T17:16:24.892Z,5.60
2018-08-13T17:18:52.092Z,6.63
2018-08-13T17:21:23.365Z,7.10
2018-08-13T17:23:51.955Z,6.40
2018-08-13T17:26:19.217Z,6.77
2018-08-13T17:28:46.416Z,5.37
2018-08-13T17:31:13.683Z,6.37
2018-08-13T17:33:46.450Z,5.10
2018-08-13T17:36:15.326Z,4.70
2018-08-13T17:38:42.571Z,5.30
2018-08-13T17:41:09.780Z,3.43
2018-08-13T17:43:37.022Z,4.40
2018-08-13T17:46:09.414Z,5.33
2018-08-13T17:48:36.692Z,5.00
2018-08-13T17:51:03.972Z,3.60
2018-08-13T17:53:31.270Z,3.93
2018-08-13T17:55:58.565Z,3.03
2018-08-13T17:58:25.783Z,3.87
2018-08-13T18:00:53.019Z,4.63
2018-08-13T18:03:24.251Z,4.93
2018-08-13T18:05:51.458Z,4.20
2018-08-13T18:08:18.937Z,2.50
2018-08-13T18:10:46.473Z,3.30
2018-08-13T18:13:16.507Z,3.97
2018-08-13T18:15:44.016Z,3.40
2018-08-13T18:18:11.403Z,2.90
2018-08-13T18:20:38.870Z,3.00
2018-08-13T18:23:06.343Z,3.30
2018-08-13T18:25:33.790Z,2.50
2018-08-13T18:28:01.372Z,2.60
2018-08-13T18:30:30.087Z,3.17
2018-08-13T18:32:58.283Z,2.73
2018-08-13T18:35:25.808Z,6.10
2018-08-13T18:37:53.943Z,3.10
2018-08-13T18:40:26.288Z,3.00
2018-08-13T18:42:54.257Z,3.17
2018-08-13T18:45:21.798Z,3.20
2018-08-13T18:47:50.044Z,3.10
2018-08-13T18:50:18.769Z,3.37
2018-08-13T18:52:46.298Z,3.13
2018-08-13T18:55:15.318Z,4.90
2018-08-13T18:57:42.861Z,6.17
2018-08-13T19:00:23.875Z,3.83
2018-08-13T19:02:51.255Z,4.90
2018-08-13T19:05:19.589Z,4.40
2018-08-13T19:07:47.129Z,5.40
2018-08-13T19:10:15.388Z,5.27
2018-08-13T19:12:42.646Z,6.70
2018-08-13T19:15:14.942Z,6.17
2018-08-13T19:17:42.179Z,5.53
2018-08-13T19:20:10.776Z,4.57
2018-08-13T19:22:37.975Z,5.80
2018-08-13T19:25:07.739Z,5.30
2018-08-13T19:27:35.048Z,6.80
2018-08-13T19:30:02.295Z,6.03
2018-08-13T19:32:29.718Z,6.20
2018-08-13T19:34:57.111Z,6.20
2018-08-13T19:37:24.327Z,5.67
2018-08-13T19:39:51.586Z,5.70
2018-08-13T19:42:18.951Z,6.60
2018-08-13T19:44:46.755Z,5.60
2018-08-13T19:47:13.990Z,6.20
2018-08-13T19:49:41.232Z,5.23
2018-08-13T19:52:08.571Z,4.37
2018-08-13T19:54:36.036Z,5.00
2018-08-13T19:57:03.337Z,4.17
2018-08-13T19:59:30.634Z,3.83
2018-08-13T20:01:57.950Z,4.60
2018-08-13T20:04:25.250Z,5.23
2018-08-13T20:06:52.627Z,4.73
2018-08-13T20:09:20.076Z,6.60
2018-08-13T20:11:52.514Z,6.37
2018-08-13T20:14:20.491Z,4.70
2018-08-13T20:16:47.991Z,4.77
2018-08-13T20:19:15.456Z,5.90
2018-08-13T20:21:42.998Z,6.17
2018-08-13T20:24:10.459Z,5.93
2018-08-13T20:26:37.882Z,7.30
2018-08-13T20:29:05.367Z,7.17
2018-08-13T20:31:32.767Z,6.97
2018-08-13T20:34:00.211Z,6.90
2018-08-13T20:36:27.667Z,7.97
2018-08-13T20:38:55.206Z,6.43
2018-08-13T20:41:22.636Z,9.53
2018-08-13T20:43:50.195Z,7.60
2018-08-13T20:46:18.970Z,7.93
2018-08-13T20:48:46.426Z,6.90
2018-08-13T20:51:13.839Z,7.37
2018-08-13T20:53:41.366Z,7.30
2018-08-13T20:56:08.873Z,6.57
2018-08-13T20:58:36.668Z,5.93
2018-08-13T21:01:04.194Z,5.83
2018-08-13T21:03:31.720Z,6.67
2018-08-13T21:05:59.140Z,6.93
2018-08-13T21:08:26.560Z,6.50
2018-08-13T21:10:53.962Z,6.07
2018-08-13T21:13:21.346Z,7.53
2018-08-13T21:15:48.857Z,6.53
2018-08-13T21:18:16.213Z,6.07
2018-08-13T21:20:43.671Z,6.10
2018-08-13T21:23:11.217Z,6.57
2018-08-13T21:25:38.773Z,6.30
2018-08-13T21:28:06.219Z,7.47
2018-08-13T21:30:33.819Z,6.57
2018-08-13T21:33:01.179Z,5.90
2018-08-13T21:35:28.660Z,5.93
2018-08-13T21:37:56.081Z,5.53
2018-08-13T21:40:23.595Z,6.03
2018-08-13T21:42:51.174Z,6.13
2018-08-13T21:45:18.883Z,5.67
2018-08-13T21:47:46.337Z,5.27
2018-08-13T21:50:18.097Z,6.70
2018-08-13T21:52:46.347Z,4.57
2018-08-13T21:55:13.813Z,4.60
2018-08-13T21:57:41.237Z,6.47
2018-08-13T22:00:16.236Z,4.30
2018-08-13T22:02:43.705Z,4.60
2018-08-13T22:05:11.431Z,5.00
2018-08-13T22:07:38.886Z,6.80
2018-08-13T22:10:07.443Z,5.30
2018-08-13T22:12:34.904Z,4.53
2018-08-13T22:15:09.942Z,5.40
2018-08-13T22:17:37.435Z,5.80
2018-08-13T22:20:04.990Z,4.63
2018-08-13T22:22:32.636Z,4.97
2018-08-13T22:25:01.214Z,5.73
2018-08-13T22:27:28.671Z,5.27
2018-08-13T22:29:56.225Z,5.07
2018-08-13T22:32:23.738Z,6.13
2018-08-13T22:34:51.180Z,4.83
2018-08-13T22:37:19.894Z,5.40
2018-08-13T22:39:47.336Z,4.93
2018-08-13T22:42:14.912Z,4.87
2018-08-13T22:44:42.312Z,5.10
2018-08-13T22:47:09.715Z,4.97
2018-08-13T22:49:37.191Z,5.73
2018-08-13T22:52:04.716Z,8.47
2018-08-13T22:54:32.130Z,5.30
2018-08-13T22:56:59.544Z,5.30
2018-08-13T22:59:27.029Z,5.47
2018-08-13T23:01:54.784Z,6.37
2018-08-13T23:04:22.220Z,6.10
2018-08-13T23:06:49.644Z,5.43
2018-08-13T23:09:17.088Z,5.97
2018-08-13T23:11:44.506Z,5.80
2018-08-13T23:14:11.959Z,5.50
2018-08-13T23:16:39.444Z,6.20
2018-08-13T23:19:06.874Z,7.30
2018-08-13T23:21:34.369Z,7.57
2018-08-13T23:24:01.792Z,6.03
2018-08-13T23:26:29.282Z,5.77
2018-08-13T23:28:56.704Z,9.67
2018-08-13T23:31:24.180Z,5.40
2018-08-13T23:33:51.669Z,6.60
2018-08-13T23:36:19.221Z,5.83
2018-08-13T23:38:46.759Z,5.47
2018-08-13T23:41:14.338Z,5.50
2018-08-13T23:43:41.863Z,6.80
2018-08-13T23:46:10.175Z,5.87
2018-08-13T23:48:37.591Z,5.67
2018-08-13T23:51:05.042Z,5.50
2018-08-13T23:53:32.442Z,6.03
2018-08-13T23:55:59.870Z,5.67
2018-08-13T23:58:27.299Z,6.10
